sensor_id;sensor_type;location;lat;lon;timestamp;P1;durP1;ratioP1;P2;durP2;ratioP2
4174;SDS011;2101;48.290;14.382;2023-06-22T00:00:50;20.00;;;2.33;;
4174;SDS011;2101;48.290;14.382;2023-06-22T00:03:17;20.88;;;2.15;;
4174;SDS011;2101;48.290;14.382;2023-06-22T00:05:44;31.13;;;2.70;;
4174;SDS011;2101;48.290;14.382;2023-06-22T00:08:10;19.97;;;2.67;;
4174;SDS011;2101;48.290;14.382;2023-06-22T00:10:37;36.67;;;3.10;;
4174;SDS011;2101;48.290;14.382;2023-06-22T00:13:06;16.93;;;2.53;;
4174;SDS011;2101;48.290;14.382;2023-06-22T00:15:32;20.07;;;2.70;;
4174;SDS011;2101;48.290;14.382;2023-06-22T00:17:58;15.80;;;1.90;;
4174;SDS011;2101;48.290;14.382;2023-06-22T00:20:25;18.97;;;2.80;;
4174;SDS011;2101;48.290;14.382;2023-06-22T00:22:59;21.90;;;2.37;;
4174;SDS011;2101;48.290;14.382;2023-06-22T00:25:26;16.13;;;2.03;;
4174;SDS011;2101;48.290;14.382;2023-06-22T00:27:52;16.50;;;2.23;;
4174;SDS011;2101;48.290;14.382;2023-06-22T00:30:24;17.97;;;2.10;;
4174;SDS011;2101;48.290;14.382;2023-06-22T00:32:50;17.67;;;2.20;;
4174;SDS011;2101;48.290;14.382;2023-06-22T00:35:16;18.80;;;2.33;;
4174;SDS011;2101;48.290;14.382;2023-06-22T00:37:42;17.97;;;2.40;;
4174;SDS011;2101;48.290;14.382;2023-06-22T00:40:09;19.07;;;2.63;;
4174;SDS011;2101;48.290;14.382;2023-06-22T00:42:38;17.40;;;1.73;;
4174;SDS011;2101;48.290;14.382;2023-06-22T00:45:05;37.57;;;2.30;;
4174;SDS011;2101;48.290;14.382;2023-06-22T00:47:34;20.30;;;2.30;;
4174;SDS011;2101;48.290;14.382;2023-06-22T00:50:01;16.70;;;2.20;;
4174;SDS011;2101;48.290;14.382;2023-06-22T00:52:28;20.10;;;2.60;;
4174;SDS011;2101;48.290;14.382;2023-06-22T00:54:58;15.00;;;1.70;;
4174;SDS011;2101;48.290;14.382;2023-06-22T00:57:26;18.20;;;2.10;;
4174;SDS011;2101;48.290;14.382;2023-06-22T00:59:53;19.57;;;2.50;;
4174;SDS011;2101;48.290;14.382;2023-06-22T01:02:19;19.07;;;2.77;;
4174;SDS011;2101;48.290;14.382;2023-06-22T01:04:45;16.47;;;1.60;;
4174;SDS011;2101;48.290;14.382;2023-06-22T01:12:16;20.20;;;2.17;;
4174;SDS011;2101;48.290;14.382;2023-06-22T01:14:47;19.17;;;2.80;;
4174;SDS011;2101;48.290;14.382;2023-06-22T01:17:17;19.10;;;2.10;;
4174;SDS011;2101;48.290;14.382;2023-06-22T01:19:45;17.40;;;2.33;;
4174;SDS011;2101;48.290;14.382;2023-06-22T01:22:15;23.63;;;2.33;;
4174;SDS011;2101;48.290;14.382;2023-06-22T01:24:55;23.73;;;2.50;;
4174;SDS011;2101;48.290;14.382;2023-06-22T01:27:40;17.07;;;2.60;;
4174;SDS011;2101;48.290;14.382;2023-06-22T01:30:07;17.97;;;2.77;;
4174;SDS011;2101;48.290;14.382;2023-06-22T01:32:35;24.03;;;2.30;;
4174;SDS011;2101;48.290;14.382;2023-06-22T01:35:03;19.73;;;2.87;;
4174;SDS011;2101;48.290;14.382;2023-06-22T01:37:30;16.53;;;2.30;;
4174;SDS011;2101;48.290;14.382;2023-06-22T01:39:57;39.27;;;3.20;;
4174;SDS011;2101;48.290;14.382;2023-06-22T01:42:24;15.70;;;2.10;;
4174;SDS011;2101;48.290;14.382;2023-06-22T01:44:50;19.83;;;2.33;;
4174;SDS011;2101;48.290;14.382;2023-06-22T01:47:23;21.77;;;1.70;;
4174;SDS011;2101;48.290;14.382;2023-06-22T01:49:50;16.40;;;2.10;;
4174;SDS011;2101;48.290;14.382;2023-06-22T01:52:18;17.40;;;2.20;;
4174;SDS011;2101;48.290;14.382;2023-06-22T01:54:46;17.80;;;2.67;;
4174;SDS011;2101;48.290;14.382;2023-06-22T01:57:13;22.73;;;2.23;;
4174;SDS011;2101;48.290;14.382;2023-06-22T01:59:42;16.50;;;2.00;;
4174;SDS011;2101;48.290;14.382;2023-06-22T02:02:11;18.40;;;2.43;;
4174;SDS011;2101;48.290;14.382;2023-06-22T02:07:09;18.10;;;2.40;;
4174;SDS011;2101;48.290;14.382;2023-06-22T02:09:36;19.10;;;2.17;;
4174;SDS011;2101;48.290;14.382;2023-06-22T02:12:04;19.23;;;2.53;;
4174;SDS011;2101;48.290;14.382;2023-06-22T02:14:31;16.40;;;1.90;;
4174;SDS011;2101;48.290;14.382;2023-06-22T02:16:57;20.30;;;2.50;;
4174;SDS011;2101;48.290;14.382;2023-06-22T02:19:31;16.20;;;2.40;;
4174;SDS011;2101;48.290;14.382;2023-06-22T02:21:58;20.20;;;2.17;;
4174;SDS011;2101;48.290;14.382;2023-06-22T02:24:24;18.50;;;2.20;;
4174;SDS011;2101;48.290;14.382;2023-06-22T02:26:50;24.10;;;2.40;;
4174;SDS011;2101;48.290;14.382;2023-06-22T02:29:16;19.47;;;2.00;;
4174;SDS011;2101;48.290;14.382;2023-06-22T02:31:43;18.83;;;2.33;;
4174;SDS011;2101;48.290;14.382;2023-06-22T02:34:09;20.23;;;2.73;;
4174;SDS011;2101;48.290;14.382;2023-06-22T02:36:35;16.10;;;2.30;;
4174;SDS011;2101;48.290;14.382;2023-06-22T02:39:04;17.40;;;2.40;;
4174;SDS011;2101;48.290;14.382;2023-06-22T02:41:33;14.97;;;1.83;;
4174;SDS011;2101;48.290;14.382;2023-06-22T02:43:59;16.53;;;2.10;;
4174;SDS011;2101;48.290;14.382;2023-06-22T02:46:31;18.23;;;2.60;;
4174;SDS011;2101;48.290;14.382;2023-06-22T02:48:57;15.70;;;2.40;;
4174;SDS011;2101;48.290;14.382;2023-06-22T02:51:24;18.70;;;2.20;;
4174;SDS011;2101;48.290;14.382;2023-06-22T02:53:50;16.13;;;2.13;;
4174;SDS011;2101;48.290;14.382;2023-06-22T02:56:17;16.60;;;2.00;;
4174;SDS011;2101;48.290;14.382;2023-06-22T02:58:47;16.10;;;2.17;;
4174;SDS011;2101;48.290;14.382;2023-06-22T03:01:13;17.00;;;2.30;;
4174;SDS011;2101;48.290;14.382;2023-06-22T03:03:39;20.10;;;2.40;;
4174;SDS011;2101;48.290;14.382;2023-06-22T03:06:05;15.70;;;1.90;;
4174;SDS011;2101;48.290;14.382;2023-06-22T03:08:31;16.97;;;2.33;;
4174;SDS011;2101;48.290;14.382;2023-06-22T03:10:58;20.57;;;2.30;;
4174;SDS011;2101;48.290;14.382;2023-06-22T03:13:24;17.30;;;2.03;;
4174;SDS011;2101;48.290;14.382;2023-06-22T03:15:50;17.10;;;2.33;;
4174;SDS011;2101;48.290;14.382;2023-06-22T03:18:16;15.57;;;1.87;;
4174;SDS011;2101;48.290;14.382;2023-06-22T03:20:42;16.90;;;1.90;;
4174;SDS011;2101;48.290;14.382;2023-06-22T03:23:08;15.37;;;1.70;;
4174;SDS011;2101;48.290;14.382;2023-06-22T03:25:35;18.20;;;2.00;;
4174;SDS011;2101;48.290;14.382;2023-06-22T03:28:01;18.93;;;2.30;;
4174;SDS011;2101;48.290;14.382;2023-06-22T03:30:27;27.83;;;2.07;;
4174;SDS011;2101;48.290;14.382;2023-06-22T03:32:53;18.73;;;2.20;;
4174;SDS011;2101;48.290;14.382;2023-06-22T03:35:19;20.30;;;2.33;;
4174;SDS011;2101;48.290;14.382;2023-06-22T03:37:45;20.20;;;2.67;;
4174;SDS011;2101;48.290;14.382;2023-06-22T03:40:11;20.87;;;2.23;;
4174;SDS011;2101;48.290;14.382;2023-06-22T03:42:37;15.40;;;2.03;;
4174;SDS011;2101;48.290;14.382;2023-06-22T03:45:04;19.00;;;2.10;;
4174;SDS011;2101;48.290;14.382;2023-06-22T03:47:34;17.50;;;2.10;;
4174;SDS011;2101;48.290;14.382;2023-06-22T03:50:00;17.80;;;2.10;;
4174;SDS011;2101;48.290;14.382;2023-06-22T03:52:28;17.57;;;2.13;;
4174;SDS011;2101;48.290;14.382;2023-06-22T03:54:55;16.23;;;2.47;;
4174;SDS011;2101;48.290;14.382;2023-06-22T03:57:21;20.13;;;2.20;;
4174;SDS011;2101;48.290;14.382;2023-06-22T03:59:57;18.17;;;2.13;;
4174;SDS011;2101;48.290;14.382;2023-06-22T04:02:28;16.73;;;2.17;;
4174;SDS011;2101;48.290;14.382;2023-06-22T04:04:58;23.63;;;2.43;;
4174;SDS011;2101;48.290;14.382;2023-06-22T04:07:24;20.13;;;2.70;;
4174;SDS011;2101;48.290;14.382;2023-06-22T04:09:50;16.07;;;2.20;;
4174;SDS011;2101;48.290;14.382;2023-06-22T04:12:16;18.97;;;2.30;;
4174;SDS011;2101;48.290;14.382;2023-06-22T04:14:42;16.97;;;2.20;;
4174;SDS011;2101;48.290;14.382;2023-06-22T04:17:08;20.57;;;2.53;;
4174;SDS011;2101;48.290;14.382;2023-06-22T04:19:34;22.60;;;2.33;;
4174;SDS011;2101;48.290;14.382;2023-06-22T04:22:00;22.33;;;2.23;;
4174;SDS011;2101;48.290;14.382;2023-06-22T04:24:26;19.73;;;2.10;;
4174;SDS011;2101;48.290;14.382;2023-06-22T04:26:52;15.20;;;2.17;;
4174;SDS011;2101;48.290;14.382;2023-06-22T04:29:20;17.50;;;2.40;;
4174;SDS011;2101;48.290;14.382;2023-06-22T04:31:46;18.13;;;2.40;;
4174;SDS011;2101;48.290;14.382;2023-06-22T04:34:16;18.20;;;2.17;;
4174;SDS011;2101;48.290;14.382;2023-06-22T04:36:42;18.60;;;2.20;;
4174;SDS011;2101;48.290;14.382;2023-06-22T04:39:10;19.53;;;2.47;;
4174;SDS011;2101;48.290;14.382;2023-06-22T04:41:40;15.67;;;2.20;;
4174;SDS011;2101;48.290;14.382;2023-06-22T04:44:09;17.63;;;2.20;;
4174;SDS011;2101;48.290;14.382;2023-06-22T04:46:37;17.30;;;2.13;;
4174;SDS011;2101;48.290;14.382;2023-06-22T04:49:06;21.83;;;2.50;;
4174;SDS011;2101;48.290;14.382;2023-06-22T04:51:39;17.13;;;2.47;;
4174;SDS011;2101;48.290;14.382;2023-06-22T04:54:06;15.90;;;1.90;;
4174;SDS011;2101;48.290;14.382;2023-06-22T04:56:36;16.90;;;2.50;;
4174;SDS011;2101;48.290;14.382;2023-06-22T04:59:02;16.67;;;2.37;;
4174;SDS011;2101;48.290;14.382;2023-06-22T05:01:29;16.90;;;2.13;;
4174;SDS011;2101;48.290;14.382;2023-06-22T05:03:59;15.77;;;2.60;;
4174;SDS011;2101;48.290;14.382;2023-06-22T05:06:29;28.93;;;1.90;;
4174;SDS011;2101;48.290;14.382;2023-06-22T05:08:56;17.50;;;2.17;;
4174;SDS011;2101;48.290;14.382;2023-06-22T05:11:26;19.23;;;2.17;;
4174;SDS011;2101;48.290;14.382;2023-06-22T05:13:54;18.53;;;2.60;;
4174;SDS011;2101;48.290;14.382;2023-06-22T05:16:23;17.33;;;2.23;;
4174;SDS011;2101;48.290;14.382;2023-06-22T05:18:53;16.77;;;2.43;;
4174;SDS011;2101;48.290;14.382;2023-06-22T05:21:24;20.43;;;2.20;;
4174;SDS011;2101;48.290;14.382;2023-06-22T05:23:50;17.00;;;2.70;;
4174;SDS011;2101;48.290;14.382;2023-06-22T05:26:17;17.60;;;2.90;;
4174;SDS011;2101;48.290;14.382;2023-06-22T05:28:43;15.30;;;2.50;;
4174;SDS011;2101;48.290;14.382;2023-06-22T05:31:13;14.80;;;1.97;;
4174;SDS011;2101;48.290;14.382;2023-06-22T05:33:41;19.60;;;2.73;;
4174;SDS011;2101;48.290;14.382;2023-06-22T05:36:08;14.97;;;2.40;;
4174;SDS011;2101;48.290;14.382;2023-06-22T05:38:35;16.00;;;2.50;;
4174;SDS011;2101;48.290;14.382;2023-06-22T05:41:01;17.63;;;2.60;;
4174;SDS011;2101;48.290;14.382;2023-06-22T05:43:28;22.70;;;2.60;;
4174;SDS011;2101;48.290;14.382;2023-06-22T05:45:54;17.63;;;2.30;;
4174;SDS011;2101;48.290;14.382;2023-06-22T05:48:20;19.90;;;2.90;;
4174;SDS011;2101;48.290;14.382;2023-06-22T05:50:49;15.37;;;2.30;;
4174;SDS011;2101;48.290;14.382;2023-06-22T05:53:15;15.03;;;2.20;;
4174;SDS011;2101;48.290;14.382;2023-06-22T05:55:42;15.63;;;2.40;;
4174;SDS011;2101;48.290;14.382;2023-06-22T05:58:08;35.42;;;2.83;;
4174;SDS011;2101;48.290;14.382;2023-06-22T06:00:35;25.83;;;3.00;;
4174;SDS011;2101;48.290;14.382;2023-06-22T06:03:01;15.55;;;2.10;;
4174;SDS011;2101;48.290;14.382;2023-06-22T06:05:29;14.20;;;1.88;;
4174;SDS011;2101;48.290;14.382;2023-06-22T06:08:02;16.80;;;2.58;;
4174;SDS011;2101;48.290;14.382;2023-06-22T06:10:36;16.85;;;2.60;;
4174;SDS011;2101;48.290;14.382;2023-06-22T06:13:07;15.15;;;2.03;;
4174;SDS011;2101;48.290;14.382;2023-06-22T06:15:33;16.17;;;2.38;;
4174;SDS011;2101;48.290;14.382;2023-06-22T06:18:00;14.85;;;2.13;;
4174;SDS011;2101;48.290;14.382;2023-06-22T06:20:34;15.32;;;2.42;;
4174;SDS011;2101;48.290;14.382;2023-06-22T06:23:05;18.73;;;2.70;;
4174;SDS011;2101;48.290;14.382;2023-06-22T06:25:34;18.15;;;2.92;;
4174;SDS011;2101;48.290;14.382;2023-06-22T06:28:00;19.42;;;2.80;;
4174;SDS011;2101;48.290;14.382;2023-06-22T06:30:26;15.15;;;2.47;;
4174;SDS011;2101;48.290;14.382;2023-06-22T06:32:52;14.90;;;2.25;;
4174;SDS011;2101;48.290;14.382;2023-06-22T06:35:22;14.45;;;2.03;;
4174;SDS011;2101;48.290;14.382;2023-06-22T06:37:48;13.98;;;2.15;;
4174;SDS011;2101;48.290;14.382;2023-06-22T06:40:15;14.50;;;2.25;;
4174;SDS011;2101;48.290;14.382;2023-06-22T06:42:43;13.90;;;2.40;;
4174;SDS011;2101;48.290;14.382;2023-06-22T06:45:31;15.82;;;1.95;;
4174;SDS011;2101;48.290;14.382;2023-06-22T06:48:00;15.98;;;2.63;;
4174;SDS011;2101;48.290;14.382;2023-06-22T06:50:26;18.80;;;2.20;;
4174;SDS011;2101;48.290;14.382;2023-06-22T06:52:52;14.45;;;2.13;;
4174;SDS011;2101;48.290;14.382;2023-06-22T06:55:21;15.52;;;2.10;;
4174;SDS011;2101;48.290;14.382;2023-06-22T06:57:50;17.10;;;2.67;;
4174;SDS011;2101;48.290;14.382;2023-06-22T07:00:17;14.95;;;2.20;;
4174;SDS011;2101;48.290;14.382;2023-06-22T07:02:44;17.95;;;2.50;;
4174;SDS011;2101;48.290;14.382;2023-06-22T07:05:12;16.20;;;2.17;;
4174;SDS011;2101;48.290;14.382;2023-06-22T07:07:39;17.23;;;1.90;;
4174;SDS011;2101;48.290;14.382;2023-06-22T07:10:06;15.48;;;2.20;;
4174;SDS011;2101;48.290;14.382;2023-06-22T07:12:33;14.60;;;2.30;;
4174;SDS011;2101;48.290;14.382;2023-06-22T07:15:05;13.50;;;1.90;;
4174;SDS011;2101;48.290;14.382;2023-06-22T07:17:35;14.70;;;2.03;;
4174;SDS011;2101;48.290;14.382;2023-06-22T07:20:02;13.73;;;2.10;;
4174;SDS011;2101;48.290;14.382;2023-06-22T07:22:37;13.13;;;1.88;;
4174;SDS011;2101;48.290;14.382;2023-06-22T07:25:04;13.65;;;2.13;;
4174;SDS011;2101;48.290;14.382;2023-06-22T07:27:44;18.88;;;1.92;;
4174;SDS011;2101;48.290;14.382;2023-06-22T07:30:13;12.90;;;1.77;;
4174;SDS011;2101;48.290;14.382;2023-06-22T07:32:45;15.07;;;2.15;;
4174;SDS011;2101;48.290;14.382;2023-06-22T07:35:11;17.40;;;2.35;;
4174;SDS011;2101;48.290;14.382;2023-06-22T07:37:37;13.75;;;2.00;;
4174;SDS011;2101;48.290;14.382;2023-06-22T07:40:04;12.55;;;1.60;;
4174;SDS011;2101;48.290;14.382;2023-06-22T07:42:31;14.48;;;2.90;;
4174;SDS011;2101;48.290;14.382;2023-06-22T07:45:03;12.70;;;1.73;;
4174;SDS011;2101;48.290;14.382;2023-06-22T07:47:30;13.10;;;1.95;;
4174;SDS011;2101;48.290;14.382;2023-06-22T07:50:00;15.63;;;1.90;;
4174;SDS011;2101;48.290;14.382;2023-06-22T07:52:27;19.40;;;2.03;;
4174;SDS011;2101;48.290;14.382;2023-06-22T07:54:53;14.25;;;2.40;;
4174;SDS011;2101;48.290;14.382;2023-06-22T07:57:25;15.93;;;2.20;;
4174;SDS011;2101;48.290;14.382;2023-06-22T07:59:59;35.65;;;3.05;;
4174;SDS011;2101;48.290;14.382;2023-06-22T08:02:29;17.63;;;2.38;;
4174;SDS011;2101;48.290;14.382;2023-06-22T08:05:13;21.02;;;3.08;;
4174;SDS011;2101;48.290;14.382;2023-06-22T08:07:42;26.98;;;2.25;;
4174;SDS011;2101;48.290;14.382;2023-06-22T08:10:27;13.18;;;2.28;;
4174;SDS011;2101;48.290;14.382;2023-06-22T08:12:53;17.70;;;2.42;;
4174;SDS011;2101;48.290;14.382;2023-06-22T08:15:25;11.50;;;1.63;;
4174;SDS011;2101;48.290;14.382;2023-06-22T08:17:52;18.77;;;2.33;;
4174;SDS011;2101;48.290;14.382;2023-06-22T08:20:23;24.02;;;2.15;;
4174;SDS011;2101;48.290;14.382;2023-06-22T08:22:49;17.80;;;1.73;;
4174;SDS011;2101;48.290;14.382;2023-06-22T08:25:19;13.65;;;1.95;;
4174;SDS011;2101;48.290;14.382;2023-06-22T08:27:48;12.70;;;2.05;;
4174;SDS011;2101;48.290;14.382;2023-06-22T08:30:17;15.98;;;2.28;;
4174;SDS011;2101;48.290;14.382;2023-06-22T08:32:48;12.18;;;2.08;;
4174;SDS011;2101;48.290;14.382;2023-06-22T08:35:14;14.32;;;2.00;;
4174;SDS011;2101;48.290;14.382;2023-06-22T08:37:46;12.30;;;2.05;;
4174;SDS011;2101;48.290;14.382;2023-06-22T08:40:16;14.00;;;2.42;;
4174;SDS011;2101;48.290;14.382;2023-06-22T08:42:47;13.98;;;2.22;;
4174;SDS011;2101;48.290;14.382;2023-06-22T08:45:18;15.80;;;1.92;;
4174;SDS011;2101;48.290;14.382;2023-06-22T08:47:47;20.77;;;2.60;;
4174;SDS011;2101;48.290;14.382;2023-06-22T08:50:16;17.27;;;2.45;;
4174;SDS011;2101;48.290;14.382;2023-06-22T08:52:42;13.50;;;2.35;;
4174;SDS011;2101;48.290;14.382;2023-06-22T08:55:11;12.60;;;1.50;;
4174;SDS011;2101;48.290;14.382;2023-06-22T08:57:39;11.93;;;1.80;;
4174;SDS011;2101;48.290;14.382;2023-06-22T09:00:09;18.33;;;2.72;;
4174;SDS011;2101;48.290;14.382;2023-06-22T09:02:47;20.60;;;2.30;;
4174;SDS011;2101;48.290;14.382;2023-06-22T09:05:13;15.77;;;2.33;;
4174;SDS011;2101;48.290;14.382;2023-06-22T09:07:45;17.77;;;2.22;;
4174;SDS011;2101;48.290;14.382;2023-06-22T09:10:13;15.07;;;2.70;;
4174;SDS011;2101;48.290;14.382;2023-06-22T09:12:40;17.27;;;2.40;;
4174;SDS011;2101;48.290;14.382;2023-06-22T09:15:19;25.80;;;2.45;;
4174;SDS011;2101;48.290;14.382;2023-06-22T09:17:45;14.85;;;2.22;;
4174;SDS011;2101;48.290;14.382;2023-06-22T09:20:27;21.25;;;2.67;;
4174;SDS011;2101;48.290;14.382;2023-06-22T09:23:19;14.60;;;2.28;;
4174;SDS011;2101;48.290;14.382;2023-06-22T09:29:42;13.40;;;2.25;;
4174;SDS011;2101;48.290;14.382;2023-06-22T09:44:55;15.07;;;2.50;;
4174;SDS011;2101;48.290;14.382;2023-06-22T09:48:06;17.95;;;2.47;;
4174;SDS011;2101;48.290;14.382;2023-06-22T09:50:54;23.15;;;3.25;;
4174;SDS011;2101;48.290;14.382;2023-06-22T09:53:55;20.33;;;2.90;;
4174;SDS011;2101;48.290;14.382;2023-06-22T10:05:43;14.32;;;2.20;;
4174;SDS011;2101;48.290;14.382;2023-06-22T10:14:24;16.80;;;2.50;;
4174;SDS011;2101;48.290;14.382;2023-06-22T10:16:52;24.05;;;2.55;;
4174;SDS011;2101;48.290;14.382;2023-06-22T10:19:18;21.50;;;2.92;;
4174;SDS011;2101;48.290;14.382;2023-06-22T10:21:45;18.55;;;2.75;;
4174;SDS011;2101;48.290;14.382;2023-06-22T10:24:11;16.30;;;2.88;;
4174;SDS011;2101;48.290;14.382;2023-06-22T10:26:40;25.70;;;3.30;;
4174;SDS011;2101;48.290;14.382;2023-06-22T10:29:07;20.27;;;2.90;;
4174;SDS011;2101;48.290;14.382;2023-06-22T10:31:33;15.23;;;2.45;;
4174;SDS011;2101;48.290;14.382;2023-06-22T10:33:59;24.20;;;3.45;;
4174;SDS011;2101;48.290;14.382;2023-06-22T10:36:28;19.73;;;2.78;;
4174;SDS011;2101;48.290;14.382;2023-06-22T10:38:55;15.07;;;2.53;;
4174;SDS011;2101;48.290;14.382;2023-06-22T10:41:24;20.05;;;3.00;;
4174;SDS011;2101;48.290;14.382;2023-06-22T10:43:51;19.23;;;2.80;;
4174;SDS011;2101;48.290;14.382;2023-06-22T10:46:17;16.42;;;2.50;;
4174;SDS011;2101;48.290;14.382;2023-06-22T10:48:44;16.83;;;2.15;;
4174;SDS011;2101;48.290;14.382;2023-06-22T10:51:10;20.50;;;2.75;;
4174;SDS011;2101;48.290;14.382;2023-06-22T10:53:37;28.15;;;2.67;;
4174;SDS011;2101;48.290;14.382;2023-06-22T10:56:04;18.10;;;2.80;;
4174;SDS011;2101;48.290;14.382;2023-06-22T10:58:36;17.00;;;2.78;;
4174;SDS011;2101;48.290;14.382;2023-06-22T11:01:04;21.05;;;2.97;;
4174;SDS011;2101;48.290;14.382;2023-06-22T11:03:30;25.90;;;3.08;;
4174;SDS011;2101;48.290;14.382;2023-06-22T11:06:03;16.35;;;2.95;;
4174;SDS011;2101;48.290;14.382;2023-06-22T11:08:29;23.60;;;2.75;;
4174;SDS011;2101;48.290;14.382;2023-06-22T11:11:05;20.30;;;3.08;;
4174;SDS011;2101;48.290;14.382;2023-06-22T11:13:33;15.57;;;2.60;;
4174;SDS011;2101;48.290;14.382;2023-06-22T11:16:00;34.85;;;3.17;;
4174;SDS011;2101;48.290;14.382;2023-06-22T11:18:26;15.52;;;2.92;;
4174;SDS011;2101;48.290;14.382;2023-06-22T11:20:53;17.58;;;2.75;;
4174;SDS011;2101;48.290;14.382;2023-06-22T11:23:20;15.23;;;2.90;;
4174;SDS011;2101;48.290;14.382;2023-06-22T11:25:46;14.65;;;2.40;;
4174;SDS011;2101;48.290;14.382;2023-06-22T11:28:12;21.65;;;2.80;;
4174;SDS011;2101;48.290;14.382;2023-06-22T11:30:39;18.70;;;2.85;;
4174;SDS011;2101;48.290;14.382;2023-06-22T11:33:06;17.75;;;3.50;;
4174;SDS011;2101;48.290;14.382;2023-06-22T11:35:34;15.95;;;3.13;;
4174;SDS011;2101;48.290;14.382;2023-06-22T11:38:00;19.40;;;2.50;;
4174;SDS011;2101;48.290;14.382;2023-06-22T11:40:28;18.98;;;3.25;;
4174;SDS011;2101;48.290;14.382;2023-06-22T11:42:57;20.60;;;3.20;;
4174;SDS011;2101;48.290;14.382;2023-06-22T11:45:23;24.20;;;2.95;;
4174;SDS011;2101;48.290;14.382;2023-06-22T11:47:50;19.50;;;2.58;;
4174;SDS011;2101;48.290;14.382;2023-06-22T11:50:16;16.13;;;2.83;;
4174;SDS011;2101;48.290;14.382;2023-06-22T11:52:42;16.45;;;3.08;;
4174;SDS011;2101;48.290;14.382;2023-06-22T11:55:09;22.35;;;3.78;;
4174;SDS011;2101;48.290;14.382;2023-06-22T11:57:36;21.45;;;2.85;;
4174;SDS011;2101;48.290;14.382;2023-06-22T12:00:05;36.72;;;3.00;;
4174;SDS011;2101;48.290;14.382;2023-06-22T12:02:39;16.13;;;3.08;;
4174;SDS011;2101;48.290;14.382;2023-06-22T12:05:05;18.20;;;3.30;;
4174;SDS011;2101;48.290;14.382;2023-06-22T12:07:33;16.95;;;2.55;;
4174;SDS011;2101;48.290;14.382;2023-06-22T12:10:00;19.40;;;3.50;;
4174;SDS011;2101;48.290;14.382;2023-06-22T12:12:27;16.90;;;3.33;;
4174;SDS011;2101;48.290;14.382;2023-06-22T12:14:58;18.73;;;3.15;;
4174;SDS011;2101;48.290;14.382;2023-06-22T12:17:28;25.98;;;3.13;;
4174;SDS011;2101;48.290;14.382;2023-06-22T12:19:55;19.52;;;3.03;;
4174;SDS011;2101;48.290;14.382;2023-06-22T12:22:21;15.57;;;2.70;;
4174;SDS011;2101;48.290;14.382;2023-06-22T12:24:48;16.30;;;3.00;;
4174;SDS011;2101;48.290;14.382;2023-06-22T12:27:14;26.05;;;3.38;;
4174;SDS011;2101;48.290;14.382;2023-06-22T12:29:42;16.73;;;2.80;;
4174;SDS011;2101;48.290;14.382;2023-06-22T12:32:08;15.68;;;3.50;;
4174;SDS011;2101;48.290;14.382;2023-06-22T12:34:34;18.67;;;2.65;;
4174;SDS011;2101;48.290;14.382;2023-06-22T12:37:00;17.40;;;2.92;;
4174;SDS011;2101;48.290;14.382;2023-06-22T12:39:27;22.08;;;3.33;;
4174;SDS011;2101;48.290;14.382;2023-06-22T12:41:53;15.98;;;2.45;;
4174;SDS011;2101;48.290;14.382;2023-06-22T12:44:20;18.88;;;3.50;;
4174;SDS011;2101;48.290;14.382;2023-06-22T12:46:46;17.70;;;2.80;;
4174;SDS011;2101;48.290;14.382;2023-06-22T12:49:12;20.17;;;3.45;;
4174;SDS011;2101;48.290;14.382;2023-06-22T12:51:41;18.42;;;3.25;;
4174;SDS011;2101;48.290;14.382;2023-06-22T12:54:08;21.50;;;3.38;;
4174;SDS011;2101;48.290;14.382;2023-06-22T12:56:35;18.88;;;2.80;;
4174;SDS011;2101;48.290;14.382;2023-06-22T12:59:04;14.70;;;2.65;;
4174;SDS011;2101;48.290;14.382;2023-06-22T13:01:31;18.35;;;3.22;;
4174;SDS011;2101;48.290;14.382;2023-06-22T13:03:58;29.13;;;3.50;;
4174;SDS011;2101;48.290;14.382;2023-06-22T13:06:31;28.75;;;3.15;;
4174;SDS011;2101;48.290;14.382;2023-06-22T13:08:58;18.38;;;3.47;;
4174;SDS011;2101;48.290;14.382;2023-06-22T13:11:30;16.13;;;3.00;;
4174;SDS011;2101;48.290;14.382;2023-06-22T13:13:56;29.63;;;2.80;;
4174;SDS011;2101;48.290;14.382;2023-06-22T13:16:23;22.02;;;3.60;;
4174;SDS011;2101;48.290;14.382;2023-06-22T13:18:49;23.92;;;2.92;;
4174;SDS011;2101;48.290;14.382;2023-06-22T13:21:15;17.45;;;3.05;;
4174;SDS011;2101;48.290;14.382;2023-06-22T13:23:41;20.60;;;2.92;;
4174;SDS011;2101;48.290;14.382;2023-06-22T13:26:08;21.40;;;3.60;;
4174;SDS011;2101;48.290;14.382;2023-06-22T13:28:34;20.05;;;3.40;;
4174;SDS011;2101;48.290;14.382;2023-06-22T13:31:00;15.23;;;2.85;;
4174;SDS011;2101;48.290;14.382;2023-06-22T13:33:26;18.48;;;2.78;;
4174;SDS011;2101;48.290;14.382;2023-06-22T13:35:52;16.80;;;3.03;;
4174;SDS011;2101;48.290;14.382;2023-06-22T13:38:19;21.60;;;3.47;;
4174;SDS011;2101;48.290;14.382;2023-06-22T13:40:46;24.25;;;4.47;;
4174;SDS011;2101;48.290;14.382;2023-06-22T13:43:12;18.77;;;2.95;;
4174;SDS011;2101;48.290;14.382;2023-06-22T13:45:39;18.98;;;3.75;;
4174;SDS011;2101;48.290;14.382;2023-06-22T13:48:05;20.20;;;3.67;;
4174;SDS011;2101;48.290;14.382;2023-06-22T13:50:31;18.05;;;2.88;;
4174;SDS011;2101;48.290;14.382;2023-06-22T13:52:57;19.35;;;3.45;;
4174;SDS011;2101;48.290;14.382;2023-06-22T13:55:24;21.50;;;3.20;;
4174;SDS011;2101;48.290;14.382;2023-06-22T13:57:51;24.60;;;3.20;;
4174;SDS011;2101;48.290;14.382;2023-06-22T14:00:19;22.15;;;3.88;;
4174;SDS011;2101;48.290;14.382;2023-06-22T14:02:46;18.67;;;3.80;;
4174;SDS011;2101;48.290;14.382;2023-06-22T14:05:12;21.15;;;3.55;;
4174;SDS011;2101;48.290;14.382;2023-06-22T14:07:38;23.88;;;3.53;;
4174;SDS011;2101;48.290;14.382;2023-06-22T14:10:05;16.17;;;2.80;;
4174;SDS011;2101;48.290;14.382;2023-06-22T14:12:31;20.95;;;4.22;;
4174;SDS011;2101;48.290;14.382;2023-06-22T14:14:57;18.90;;;3.90;;
4174;SDS011;2101;48.290;14.382;2023-06-22T14:17:24;16.30;;;2.90;;
4174;SDS011;2101;48.290;14.382;2023-06-22T14:19:54;18.15;;;3.67;;
4174;SDS011;2101;48.290;14.382;2023-06-22T14:22:23;22.42;;;3.70;;
4174;SDS011;2101;48.290;14.382;2023-06-22T14:24:49;24.17;;;3.92;;
4174;SDS011;2101;48.290;14.382;2023-06-22T14:27:15;20.45;;;4.05;;
4174;SDS011;2101;48.290;14.382;2023-06-22T14:29:51;30.58;;;3.80;;
4174;SDS011;2101;48.290;14.382;2023-06-22T14:32:17;28.80;;;3.38;;
4174;SDS011;2101;48.290;14.382;2023-06-22T14:34:43;16.90;;;3.78;;
4174;SDS011;2101;48.290;14.382;2023-06-22T14:37:17;17.77;;;3.67;;
4174;SDS011;2101;48.290;14.382;2023-06-22T14:39:45;23.63;;;3.72;;
4174;SDS011;2101;48.290;14.382;2023-06-22T14:42:15;17.80;;;3.90;;
4174;SDS011;2101;48.290;14.382;2023-06-22T14:44:41;24.10;;;3.60;;
4174;SDS011;2101;48.290;14.382;2023-06-22T14:47:10;20.90;;;3.95;;
4174;SDS011;2101;48.290;14.382;2023-06-22T14:49:36;15.52;;;3.53;;
4174;SDS011;2101;48.290;14.382;2023-06-22T14:52:03;17.42;;;3.40;;
4174;SDS011;2101;48.290;14.382;2023-06-22T14:54:29;26.50;;;4.35;;
4174;SDS011;2101;48.290;14.382;2023-06-22T14:56:56;21.48;;;3.85;;
4174;SDS011;2101;48.290;14.382;2023-06-22T14:59:23;19.77;;;3.90;;
4174;SDS011;2101;48.290;14.382;2023-06-22T15:01:49;19.83;;;4.28;;
4174;SDS011;2101;48.290;14.382;2023-06-22T15:04:17;33.58;;;4.32;;
4174;SDS011;2101;48.290;14.382;2023-06-22T15:06:52;19.58;;;4.32;;
4174;SDS011;2101;48.290;14.382;2023-06-22T15:09:20;21.55;;;3.83;;
4174;SDS011;2101;48.290;14.382;2023-06-22T15:11:47;17.50;;;3.28;;
4174;SDS011;2101;48.290;14.382;2023-06-22T15:14:13;16.88;;;3.92;;
4174;SDS011;2101;48.290;14.382;2023-06-22T15:16:42;21.20;;;4.43;;
4174;SDS011;2101;48.290;14.382;2023-06-22T15:19:08;18.38;;;4.40;;
4174;SDS011;2101;48.290;14.382;2023-06-22T15:21:37;21.35;;;4.70;;
4174;SDS011;2101;48.290;14.382;2023-06-22T15:24:24;36.25;;;4.38;;
4174;SDS011;2101;48.290;14.382;2023-06-22T15:26:52;19.17;;;4.00;;
4174;SDS011;2101;48.290;14.382;2023-06-22T15:29:22;20.33;;;4.15;;
4174;SDS011;2101;48.290;14.382;2023-06-22T15:31:51;23.08;;;4.28;;
4174;SDS011;2101;48.290;14.382;2023-06-22T15:34:22;21.08;;;3.78;;